Naponee, Nebraska
Current Conditions -  °F | °C
As of 5:55 AM on Thursday 23 Oct 2014 (Local Time) from KHDE Reporting Station
Moderate Fog Moderate Fog  
Wind Chill: 46°   Ceiling: 100
Heat Index: 46°   Visibility: 0.25mi
Dew Point: 45°   Wind: 0mph
Humidity: 97%   Direction: NA
Pressure: 30.08"   Gusts: NA
Location:  40.08°N, 99.14°W
Report Text: KHDE 231055Z AUTO 00000KT 1/4SM FG OVC001 08/07 A3008 RMK AO2 T00750070
Loading
Personal Weather Stations






























Interactive Weather Map New forecast layout! Learn more

10-Day Weather Forecast

Advertisements
Track Severe Weather on mobile